createdAt,value
2023-05-09T00:00:48.373Z,83.90
2023-05-09T00:03:15.479Z,84.18
2023-05-09T00:05:42.477Z,84.11
2023-05-09T00:08:09.465Z,84.28
2023-05-09T00:10:37.097Z,84.36
2023-05-09T00:13:04.225Z,84.15
2023-05-09T00:15:31.959Z,84.80
2023-05-09T00:17:59.409Z,85.21
2023-05-09T00:20:26.456Z,84.85
2023-05-09T00:22:53.407Z,85.45
2023-05-09T00:25:20.396Z,85.98
2023-05-09T00:27:47.456Z,86.28
2023-05-09T00:30:14.407Z,87.15
2023-05-09T00:32:41.719Z,88.67
2023-05-09T00:35:09.964Z,89.26
2023-05-09T00:37:37.212Z,89.09
2023-05-09T00:40:06.554Z,89.46
2023-05-09T00:42:33.859Z,89.60
2023-05-09T00:45:00.870Z,89.72
2023-05-09T00:47:28.926Z,89.85
2023-05-09T00:49:57.994Z,90.25
2023-05-09T00:52:26.531Z,91.65
2023-05-09T00:54:54.781Z,92.00
2023-05-09T00:57:22.796Z,92.59
2023-05-09T00:59:50.213Z,93.90
2023-05-09T01:02:20.228Z,92.74
2023-05-09T01:04:47.700Z,94.38
2023-05-09T01:07:46.050Z,96.00
2023-05-09T01:10:59.087Z,95.20
2023-05-09T01:13:32.645Z,95.21
2023-05-09T01:16:27.690Z,94.73
2023-05-09T01:19:46.492Z,94.58
2023-05-09T01:22:16.359Z,94.44
2023-05-09T01:25:11.907Z,94.21
2023-05-09T01:28:16.433Z,94.46
2023-05-09T01:30:46.703Z,94.39
2023-05-09T01:33:19.330Z,94.66
2023-05-09T01:35:58.506Z,94.64
2023-05-09T01:38:26.519Z,94.49
2023-05-09T01:40:56.960Z,95.11
2023-05-09T01:43:27.735Z,94.18
2023-05-09T01:45:56.317Z,93.84
2023-05-09T01:48:26.367Z,93.32
2023-05-09T01:50:54.884Z,92.36
2023-05-09T01:53:23.271Z,92.64
2023-05-09T01:55:52.603Z,92.38
2023-05-09T01:58:21.053Z,92.51
2023-05-09T02:00:49.015Z,91.86
2023-05-09T02:03:16.101Z,91.26
2023-05-09T02:05:44.213Z,91.05
2023-05-09T02:08:14.287Z,91.17
2023-05-09T02:10:41.959Z,90.44
2023-05-09T02:13:08.916Z,90.76
2023-05-09T02:15:35.950Z,90.17
2023-05-09T02:18:02.922Z,90.78
2023-05-09T02:20:29.895Z,91.15
2023-05-09T02:22:56.995Z,90.98
2023-05-09T02:25:24.199Z,90.65
2023-05-09T02:27:52.278Z,90.29
2023-05-09T02:30:25.416Z,90.22
2023-05-09T02:32:59.064Z,89.84
2023-05-09T02:35:28.326Z,90.17
2023-05-09T02:37:56.338Z,89.70
2023-05-09T02:40:24.762Z,89.74
2023-05-09T02:42:51.721Z,89.46
2023-05-09T02:45:18.685Z,89.60
2023-05-09T02:47:45.706Z,89.21
2023-05-09T02:50:12.870Z,89.62
2023-05-09T02:52:39.977Z,88.03
2023-05-09T02:55:07.746Z,88.53
2023-05-09T02:57:38.142Z,88.33
2023-05-09T03:00:09.613Z,87.22
2023-05-09T03:02:38.023Z,86.66
2023-05-09T03:05:08.563Z,86.69
2023-05-09T03:07:37.035Z,85.77
2023-05-09T03:10:04.680Z,86.13
2023-05-09T03:12:31.906Z,85.41
2023-05-09T03:14:59.003Z,85.63
2023-05-09T03:17:26.170Z,85.45
2023-05-09T03:19:53.206Z,85.74
2023-05-09T03:22:20.880Z,86.31
2023-05-09T03:24:56.592Z,86.62
2023-05-09T03:27:23.601Z,86.32
2023-05-09T03:29:51.170Z,86.63
2023-05-09T03:32:19.560Z,86.95
2023-05-09T03:34:46.509Z,87.37
2023-05-09T03:37:13.574Z,86.69
2023-05-09T03:39:41.615Z,85.72
2023-05-09T03:42:08.537Z,85.40
2023-05-09T03:44:35.876Z,85.21
2023-05-09T03:47:02.784Z,85.38
2023-05-09T03:49:36.288Z,85.08
2023-05-09T03:52:04.088Z,84.93
2023-05-09T03:54:31.454Z,85.24
2023-05-09T03:56:58.384Z,85.13
2023-05-09T03:59:25.327Z,85.31
2023-05-09T04:01:52.382Z,85.76
2023-05-09T04:04:19.483Z,85.07
2023-05-09T04:06:47.028Z,85.07
2023-05-09T04:09:16.483Z,85.78
2023-05-09T04:11:43.393Z,85.59
2023-05-09T04:14:12.460Z,86.14
2023-05-09T04:16:39.983Z,86.17
2023-05-09T04:19:07.223Z,86.15
2023-05-09T04:21:35.360Z,86.71
2023-05-09T04:24:03.578Z,86.84
2023-05-09T04:26:41.582Z,87.61
2023-05-09T04:29:12.106Z,87.88
2023-05-09T04:31:39.441Z,88.24
2023-05-09T04:34:08.162Z,88.11
2023-05-09T04:36:37.613Z,88.65
2023-05-09T04:39:08.279Z,88.33
2023-05-09T04:41:36.180Z,87.77
2023-05-09T04:44:03.291Z,87.32
2023-05-09T04:46:30.379Z,86.85
2023-05-09T04:48:57.891Z,87.33
2023-05-09T04:51:24.791Z,87.15
2023-05-09T04:53:51.711Z,86.29
2023-05-09T04:56:21.755Z,87.52
2023-05-09T04:58:49.380Z,86.73
2023-05-09T05:01:16.774Z,86.37
2023-05-09T05:03:44.583Z,84.94
2023-05-09T05:06:11.616Z,83.90
2023-05-09T05:08:41.031Z,83.15
2023-05-09T05:11:08.966Z,82.45
2023-05-09T05:13:35.997Z,81.33
2023-05-09T05:16:03.318Z,80.92
2023-05-09T05:18:30.279Z,80.10
2023-05-09T05:20:57.229Z,81.35
2023-05-09T05:23:25.708Z,80.91
2023-05-09T05:25:54.370Z,81.31
2023-05-09T05:28:21.294Z,80.37
2023-05-09T05:30:48.191Z,79.27
2023-05-09T05:33:15.125Z,80.64
2023-05-09T05:35:42.084Z,79.52
2023-05-09T05:38:09.075Z,79.45
2023-05-09T05:40:36.598Z,78.42
2023-05-09T05:43:05.801Z,78.36
2023-05-09T05:45:34.233Z,77.98
2023-05-09T05:48:03.903Z,77.82
2023-05-09T05:50:32.009Z,77.01
2023-05-09T05:52:59.689Z,75.13
2023-05-09T05:55:26.733Z,75.61
2023-05-09T05:57:53.717Z,75.36
2023-05-09T06:00:20.840Z,74.56
2023-05-09T06:02:55.060Z,74.41
2023-05-09T06:05:27.611Z,74.07
2023-05-09T06:07:54.523Z,73.87
2023-05-09T06:10:21.482Z,73.54
2023-05-09T06:12:48.528Z,73.72
2023-05-09T06:15:16.049Z,73.37
2023-05-09T06:17:46.473Z,73.57
2023-05-09T06:20:13.398Z,74.39
2023-05-09T06:22:40.468Z,75.68
2023-05-09T06:25:10.132Z,75.13
2023-05-09T06:27:38.342Z,74.95
2023-05-09T06:30:23.780Z,73.61
2023-05-09T06:32:52.180Z,73.14
2023-05-09T06:35:19.353Z,74.44
2023-05-09T06:37:48.416Z,74.67
2023-05-09T06:40:16.452Z,74.72
2023-05-09T06:42:43.386Z,74.38
2023-05-09T06:45:11.205Z,73.87
2023-05-09T06:47:38.333Z,73.65
2023-05-09T06:50:05.949Z,73.89
2023-05-09T06:52:32.800Z,74.32
2023-05-09T06:54:59.732Z,73.62
2023-05-09T06:57:26.633Z,73.55
2023-05-09T06:59:53.573Z,73.82
2023-05-09T07:02:20.589Z,74.13
2023-05-09T07:04:47.545Z,74.81
2023-05-09T07:07:14.465Z,75.14
2023-05-09T07:09:41.393Z,75.23
2023-05-09T07:12:08.445Z,74.04
2023-05-09T07:14:35.731Z,73.50
2023-05-09T07:17:17.960Z,73.51
2023-05-09T07:19:48.589Z,73.07
2023-05-09T07:22:15.482Z,73.34
2023-05-09T07:24:44.256Z,72.31
2023-05-09T07:27:11.200Z,73.34
2023-05-09T07:29:38.192Z,73.01
2023-05-09T07:32:05.299Z,72.79
2023-05-09T07:34:32.265Z,73.02
2023-05-09T07:36:59.240Z,71.99
2023-05-09T07:39:26.301Z,72.08
2023-05-09T07:41:53.243Z,72.18
2023-05-09T07:44:20.200Z,71.96
2023-05-09T07:46:47.224Z,72.46
2023-05-09T07:49:14.145Z,71.47
2023-05-09T07:51:41.422Z,72.68
2023-05-09T07:54:10.148Z,71.90
2023-05-09T07:56:37.265Z,72.29
2023-05-09T07:59:04.242Z,72.04
2023-05-09T08:01:31.315Z,71.72
2023-05-09T08:03:59.091Z,71.02
2023-05-09T08:06:26.451Z,72.01
2023-05-09T08:08:53.334Z,69.24
2023-05-09T08:11:20.297Z,68.96
2023-05-09T08:13:48.137Z,69.33
2023-05-09T08:16:17.269Z,69.54
2023-05-09T08:18:44.572Z,69.35
2023-05-09T08:21:11.569Z,68.08
2023-05-09T08:23:38.588Z,68.25
2023-05-09T08:26:05.475Z,67.84
2023-05-09T08:28:32.536Z,67.38
2023-05-09T08:30:59.638Z,66.87
2023-05-09T08:33:26.635Z,67.11
2023-05-09T08:35:54.460Z,66.55
2023-05-09T08:38:22.066Z,66.86
2023-05-09T08:40:49.009Z,66.39
2023-05-09T08:43:20.248Z,67.44
2023-05-09T08:45:52.333Z,66.39
2023-05-09T08:48:19.702Z,65.58
2023-05-09T08:50:47.660Z,65.21
2023-05-09T08:53:15.128Z,65.76
2023-05-09T08:55:42.313Z,66.44
2023-05-09T08:58:14.636Z,67.22
2023-05-09T09:00:42.054Z,67.59
2023-05-09T09:03:09.087Z,67.87
2023-05-09T09:05:41.440Z,68.48
2023-05-09T09:08:10.239Z,68.91
2023-05-09T09:10:47.342Z,69.88
2023-05-09T09:13:16.262Z,70.11
2023-05-09T09:15:46.348Z,67.99
2023-05-09T09:18:20.535Z,67.98
2023-05-09T09:21:10.035Z,67.70
2023-05-09T09:23:40.845Z,68.21
2023-05-09T09:26:08.065Z,67.95
2023-05-09T09:28:35.846Z,67.21
2023-05-09T09:31:02.771Z,67.31
2023-05-09T09:33:29.954Z,68.10
2023-05-09T09:35:57.693Z,69.87
2023-05-09T09:38:25.080Z,69.94
2023-05-09T09:40:51.896Z,70.14
2023-05-09T09:43:19.390Z,69.73
2023-05-09T09:45:52.994Z,69.31
2023-05-09T09:48:28.305Z,70.07
2023-05-09T09:50:59.476Z,69.50
2023-05-09T09:53:30.348Z,68.43
2023-05-09T09:55:57.515Z,67.89
2023-05-09T09:58:27.168Z,67.12
2023-05-09T10:01:20.052Z,66.19
2023-05-09T10:03:47.938Z,65.48
2023-05-09T10:06:16.481Z,65.61
2023-05-09T10:08:49.093Z,65.46
2023-05-09T10:11:16.420Z,65.90
2023-05-09T10:13:44.481Z,65.17
2023-05-09T10:16:12.802Z,64.63
2023-05-09T10:18:42.602Z,64.78
2023-05-09T10:21:14.688Z,65.33
2023-05-09T10:23:46.954Z,65.76
2023-05-09T10:26:28.913Z,66.30
2023-05-09T10:28:58.019Z,67.05
2023-05-09T10:31:29.670Z,68.04
2023-05-09T10:33:57.119Z,67.77
2023-05-09T10:36:24.833Z,69.19
2023-05-09T10:38:54.891Z,68.07
2023-05-09T10:41:22.677Z,67.89
2023-05-09T10:43:50.080Z,67.47
2023-05-09T10:46:17.710Z,67.36
2023-05-09T10:48:45.617Z,67.50
2023-05-09T10:51:13.284Z,68.55
2023-05-09T10:53:49.819Z,69.52
2023-05-09T10:56:29.554Z,68.88
2023-05-09T10:58:57.348Z,68.28
2023-05-09T11:01:38.857Z,68.34
2023-05-09T11:04:14.460Z,68.13
2023-05-09T11:06:52.375Z,68.72
2023-05-09T11:09:41.371Z,68.04
2023-05-09T11:12:13.134Z,68.76
2023-05-09T11:14:48.950Z,68.36
2023-05-09T11:17:24.687Z,68.59
2023-05-09T11:19:51.712Z,68.86
2023-05-09T11:22:28.691Z,69.11
2023-05-09T11:25:08.408Z,69.94
2023-05-09T11:27:43.749Z,69.76
2023-05-09T11:30:17.083Z,69.28
2023-05-09T11:32:58.992Z,68.71
2023-05-09T11:35:27.339Z,69.31
2023-05-09T11:38:06.842Z,68.47
2023-05-09T11:40:35.192Z,68.64
2023-05-09T11:43:02.660Z,67.45
2023-05-09T11:45:32.607Z,67.42
2023-05-09T11:48:01.060Z,67.44
2023-05-09T11:50:28.800Z,67.41
2023-05-09T11:52:55.952Z,66.75
2023-05-09T11:55:23.265Z,66.66
2023-05-09T11:57:54.627Z,66.47
2023-05-09T12:00:26.368Z,67.45
2023-05-09T12:02:53.826Z,65.91
2023-05-09T12:05:23.206Z,66.20
2023-05-09T12:07:50.717Z,65.77
2023-05-09T12:10:21.967Z,65.85
2023-05-09T12:12:51.582Z,66.26
2023-05-09T12:15:20.094Z,65.73
2023-05-09T12:17:50.490Z,65.19
2023-05-09T12:20:18.968Z,65.19
2023-05-09T12:22:55.011Z,64.71
2023-05-09T12:25:22.672Z,64.25
2023-05-09T12:27:49.644Z,63.72
2023-05-09T12:30:18.528Z,63.38
2023-05-09T12:32:46.578Z,61.28
2023-05-09T12:35:13.703Z,61.69
2023-05-09T12:37:40.800Z,60.99
2023-05-09T12:40:12.968Z,59.62
2023-05-09T12:42:43.964Z,59.23
2023-05-09T12:45:12.002Z,58.75
2023-05-09T12:47:39.219Z,59.08
2023-05-09T12:50:07.636Z,60.07
2023-05-09T12:52:43.989Z,60.03
2023-05-09T12:55:20.130Z,59.35
2023-05-09T12:58:03.704Z,58.48
2023-05-09T13:00:46.273Z,57.49
2023-05-09T13:03:31.054Z,57.49
2023-05-09T13:06:01.491Z,56.71
2023-05-09T13:08:29.209Z,58.22
2023-05-09T13:11:14.724Z,58.30
2023-05-09T13:13:42.919Z,59.87
2023-05-09T13:16:11.204Z,59.26
2023-05-09T13:18:39.040Z,58.89
2023-05-09T13:21:05.954Z,59.54
2023-05-09T13:23:32.871Z,59.53
2023-05-09T13:25:59.799Z,59.88
2023-05-09T13:28:26.724Z,60.63
2023-05-09T13:30:53.682Z,59.96
2023-05-09T13:35:51.303Z,60.93
2023-05-09T13:38:18.220Z,60.91
2023-05-09T13:40:45.179Z,61.16
2023-05-09T13:43:12.081Z,61.93
2023-05-09T13:45:39.163Z,61.66
2023-05-09T13:48:06.367Z,62.37
2023-05-09T13:50:33.910Z,62.42
2023-05-09T13:53:00.877Z,62.83
2023-05-09T13:55:27.821Z,61.94
2023-05-09T13:57:57.675Z,62.56
2023-05-09T14:00:26.503Z,62.19
2023-05-09T14:02:53.524Z,61.99
2023-05-09T14:05:20.544Z,62.43
2023-05-09T14:07:47.473Z,60.84
2023-05-09T14:10:14.407Z,60.11
2023-05-09T14:12:44.278Z,60.32
2023-05-09T14:15:11.493Z,61.12
2023-05-09T14:17:39.638Z,60.91
2023-05-09T14:20:08.126Z,60.88
2023-05-09T14:22:35.117Z,59.45
2023-05-09T14:25:02.244Z,59.23
2023-05-09T14:27:30.015Z,60.61
2023-05-09T14:29:57.447Z,60.04
2023-05-09T14:32:25.299Z,60.12
2023-05-09T14:34:52.207Z,60.34
2023-05-09T14:37:19.192Z,60.83
2023-05-09T14:39:46.738Z,61.03
2023-05-09T14:42:14.141Z,60.87
2023-05-09T14:44:42.007Z,60.18
2023-05-09T14:47:09.589Z,59.77
2023-05-09T14:49:38.621Z,59.79
2023-05-09T14:52:05.923Z,59.55
2023-05-09T14:54:32.905Z,60.36
2023-05-09T14:57:01.865Z,60.06
2023-05-09T14:59:29.562Z,59.88
2023-05-09T15:01:56.550Z,59.86
2023-05-09T15:04:28.108Z,59.37
2023-05-09T15:06:55.151Z,59.81
2023-05-09T15:09:22.579Z,60.02
2023-05-09T15:11:49.673Z,60.28
2023-05-09T15:14:17.031Z,60.51
2023-05-09T15:16:44.337Z,60.87
2023-05-09T15:19:11.523Z,62.17
2023-05-09T15:21:38.579Z,60.96
2023-05-09T15:24:06.202Z,60.34
2023-05-09T15:26:33.240Z,60.29
2023-05-09T15:29:00.128Z,60.45
2023-05-09T15:31:33.437Z,60.66
2023-05-09T15:34:01.948Z,60.40
2023-05-09T15:36:33.735Z,60.78
2023-05-09T15:39:00.764Z,60.24
2023-05-09T15:41:28.608Z,60.49
2023-05-09T15:43:55.566Z,61.96
2023-05-09T15:46:27.175Z,69.62
2023-05-09T15:48:56.136Z,73.28
2023-05-09T15:51:23.135Z,74.81
2023-05-09T15:53:50.128Z,76.99
2023-05-09T15:56:17.186Z,78.44
2023-05-09T15:58:44.085Z,79.80
2023-05-09T16:01:13.016Z,81.98
2023-05-09T16:03:40.582Z,83.39
2023-05-09T16:06:07.794Z,85.44
2023-05-09T16:08:34.713Z,87.23
2023-05-09T16:11:02.019Z,88.69
2023-05-09T16:13:30.030Z,89.42
2023-05-09T16:15:57.154Z,88.11
2023-05-09T16:18:24.173Z,87.85
2023-05-09T16:20:51.368Z,85.68
2023-05-09T16:23:18.297Z,84.71
2023-05-09T16:25:45.244Z,84.15
2023-05-09T16:28:12.389Z,84.74
2023-05-09T16:30:39.259Z,82.92
2023-05-09T16:33:06.191Z,82.72
2023-05-09T16:35:33.869Z,82.30
2023-05-09T16:38:00.832Z,81.36
2023-05-09T16:40:28.489Z,80.34
2023-05-09T16:42:55.467Z,78.21
2023-05-09T16:45:22.514Z,78.94
2023-05-09T16:47:51.037Z,79.61
2023-05-09T16:50:18.143Z,79.30
2023-05-09T16:52:47.834Z,78.71
2023-05-09T16:55:14.837Z,78.18
2023-05-09T16:57:41.784Z,78.31
2023-05-09T17:00:10.079Z,77.87
2023-05-09T17:02:37.199Z,77.70
2023-05-09T17:05:04.966Z,77.68
2023-05-09T17:07:32.218Z,77.64
2023-05-09T17:09:59.247Z,76.57
2023-05-09T17:12:27.564Z,76.67
2023-05-09T17:14:54.583Z,74.77
2023-05-09T17:17:21.518Z,73.86
2023-05-09T17:19:48.525Z,73.52
2023-05-09T17:22:15.465Z,72.11
2023-05-09T17:24:42.406Z,70.56
2023-05-09T17:27:10.757Z,71.48
2023-05-09T17:29:37.818Z,70.04
2023-05-09T17:32:05.023Z,78.37
2023-05-09T17:34:32.292Z,84.43
2023-05-09T17:37:02.024Z,90.55
2023-05-09T17:39:29.177Z,98.33
2023-05-09T17:41:56.163Z,100.00
2023-05-09T17:44:23.059Z,100.00
2023-05-09T17:46:50.662Z,100.00
2023-05-09T17:49:19.229Z,100.00
2023-05-09T17:51:46.197Z,100.00
2023-05-09T17:54:14.353Z,100.00
2023-05-09T17:56:41.419Z,100.00
2023-05-09T17:59:08.419Z,100.00
2023-05-09T18:01:35.575Z,100.00
2023-05-09T18:04:02.858Z,100.00
2023-05-09T18:06:29.805Z,100.00
2023-05-09T18:08:56.762Z,100.00
2023-05-09T18:11:24.527Z,100.00
2023-05-09T18:13:51.537Z,100.00
2023-05-09T18:16:18.449Z,100.00
2023-05-09T18:18:45.394Z,100.00
2023-05-09T18:21:12.460Z,100.00
2023-05-09T18:23:40.204Z,100.00
2023-05-09T18:26:08.018Z,100.00
2023-05-09T18:28:41.014Z,100.00
2023-05-09T18:31:09.664Z,100.00
2023-05-09T18:33:38.315Z,100.00
2023-05-09T18:36:10.358Z,100.00
2023-05-09T18:38:38.988Z,100.00
2023-05-09T18:41:12.253Z,100.00
2023-05-09T18:43:45.700Z,100.00
2023-05-09T18:46:17.642Z,100.00
2023-05-09T18:48:46.304Z,100.00
2023-05-09T18:51:13.318Z,100.00
2023-05-09T18:53:43.536Z,100.00
2023-05-09T18:56:10.648Z,100.00
2023-05-09T18:58:38.090Z,100.00
2023-05-09T19:01:05.550Z,100.00
2023-05-09T19:03:32.565Z,100.00
2023-05-09T19:05:59.984Z,100.00
2023-05-09T19:08:27.531Z,100.00
2023-05-09T19:10:54.450Z,100.00
2023-05-09T19:13:21.464Z,100.00
2023-05-09T19:15:48.528Z,100.00
2023-05-09T19:18:15.455Z,100.00
2023-05-09T19:20:42.328Z,100.00
2023-05-09T19:23:09.305Z,100.00
2023-05-09T19:25:37.065Z,100.00
2023-05-09T19:28:04.130Z,100.00
2023-05-09T19:30:31.143Z,100.00
2023-05-09T19:32:58.104Z,100.00
2023-05-09T19:35:25.450Z,100.00
2023-05-09T19:37:52.398Z,100.00
2023-05-09T19:40:19.411Z,100.00
2023-05-09T19:42:46.340Z,100.00
2023-05-09T19:45:13.260Z,100.00
2023-05-09T19:47:40.253Z,100.00
2023-05-09T19:50:08.262Z,100.00
2023-05-09T19:52:37.304Z,100.00
2023-05-09T19:55:05.886Z,100.00
2023-05-09T19:57:33.166Z,100.00
2023-05-09T20:00:00.049Z,100.00
2023-05-09T20:02:27.261Z,100.00
2023-05-09T20:04:54.454Z,100.00
2023-05-09T20:07:21.420Z,100.00
2023-05-09T20:09:48.720Z,100.00
2023-05-09T20:12:15.596Z,100.00
2023-05-09T20:14:42.693Z,100.00
2023-05-09T20:17:09.708Z,100.00
2023-05-09T20:19:36.792Z,100.00
2023-05-09T20:22:04.088Z,100.00
2023-05-09T20:24:31.371Z,100.00
2023-05-09T20:26:58.288Z,100.00
2023-05-09T20:29:25.855Z,100.00
2023-05-09T20:31:52.847Z,100.00
2023-05-09T20:34:21.407Z,100.00
2023-05-09T20:36:52.199Z,100.00
2023-05-09T20:39:20.425Z,100.00
2023-05-09T20:41:48.938Z,100.00
2023-05-09T20:44:17.697Z,100.00
2023-05-09T20:46:45.655Z,100.00
2023-05-09T20:49:12.757Z,100.00
2023-05-09T20:51:39.712Z,100.00
2023-05-09T20:54:06.833Z,100.00
2023-05-09T20:56:35.390Z,100.00
2023-05-09T20:59:03.985Z,100.00
2023-05-09T21:01:32.589Z,100.00
2023-05-09T21:03:59.800Z,100.00
2023-05-09T21:06:26.801Z,100.00
2023-05-09T21:08:53.826Z,100.00
2023-05-09T21:11:21.896Z,100.00
2023-05-09T21:13:49.093Z,100.00
2023-05-09T21:16:16.120Z,100.00
2023-05-09T21:18:43.577Z,100.00
2023-05-09T21:21:11.321Z,100.00
2023-05-09T21:23:49.552Z,100.00
2023-05-09T21:26:16.830Z,100.00
2023-05-09T21:28:44.077Z,100.00
2023-05-09T21:31:11.575Z,100.00
2023-05-09T21:33:38.729Z,100.00
2023-05-09T21:36:06.198Z,100.00
2023-05-09T21:38:33.113Z,100.00
2023-05-09T21:41:00.026Z,100.00
2023-05-09T21:43:28.499Z,100.00
2023-05-09T21:45:56.245Z,100.00
2023-05-09T21:48:23.268Z,100.00
2023-05-09T21:50:50.244Z,100.00
2023-05-09T21:53:18.495Z,100.00
2023-05-09T21:55:45.556Z,100.00
2023-05-09T21:58:12.464Z,100.00
2023-05-09T22:00:39.374Z,100.00
2023-05-09T22:03:06.454Z,100.00
2023-05-09T22:05:33.461Z,100.00
2023-05-09T22:08:00.313Z,100.00
2023-05-09T22:10:27.215Z,100.00
2023-05-09T22:12:54.483Z,100.00
2023-05-09T22:15:21.385Z,100.00
2023-05-09T22:17:48.323Z,100.00
2023-05-09T22:20:16.371Z,100.00
2023-05-09T22:22:43.447Z,100.00
2023-05-09T22:25:10.591Z,100.00
2023-05-09T22:27:37.489Z,100.00
2023-05-09T22:30:05.995Z,100.00
2023-05-09T22:32:33.051Z,100.00
2023-05-09T22:34:59.963Z,100.00
2023-05-09T22:37:27.153Z,100.00
2023-05-09T22:39:54.069Z,100.00
2023-05-09T22:42:21.236Z,100.00
2023-05-09T22:44:49.706Z,100.00
2023-05-09T22:47:16.952Z,100.00
2023-05-09T22:49:45.769Z,100.00
2023-05-09T22:52:13.144Z,100.00
2023-05-09T22:54:40.588Z,100.00
2023-05-09T22:57:07.480Z,100.00
2023-05-09T22:59:34.910Z,100.00
2023-05-09T23:02:01.839Z,100.00
2023-05-09T23:04:28.840Z,100.00
2023-05-09T23:06:56.122Z,100.00
2023-05-09T23:09:23.314Z,100.00
2023-05-09T23:11:50.378Z,100.00
2023-05-09T23:14:17.412Z,100.00
2023-05-09T23:16:44.704Z,100.00
2023-05-09T23:19:11.626Z,100.00
2023-05-09T23:21:38.630Z,100.00
2023-05-09T23:24:05.803Z,100.00
2023-05-09T23:26:33.127Z,100.00
2023-05-09T23:29:00.047Z,100.00
2023-05-09T23:31:27.066Z,100.00
2023-05-09T23:33:56.999Z,100.00
2023-05-09T23:36:23.894Z,100.00
2023-05-09T23:38:50.942Z,100.00
2023-05-09T23:41:17.815Z,100.00
2023-05-09T23:43:44.891Z,100.00
2023-05-09T23:46:11.811Z,100.00
2023-05-09T23:48:39.030Z,100.00
2023-05-09T23:51:05.984Z,100.00
2023-05-09T23:53:35.032Z,100.00
2023-05-09T23:56:02.958Z,100.00
2023-05-09T23:58:29.891Z,100.00
